EDT,Max TemperatureF,Mean TemperatureF,Min TemperatureF,Max Dew PointF,MeanDew PointF,Min DewpointF,Max Humidity, Mean Humidity, Min Humidity, Max Sea Level PressureIn, Mean Sea Level PressureIn, Min Sea Level PressureIn, Max VisibilityMiles, Mean VisibilityMiles, Min VisibilityMiles, Max Wind SpeedMPH, Mean Wind SpeedMPH, Max Gust SpeedMPH,PrecipitationIn, CloudCover, Events, WindDirDegrees
2010-10-1,55,45,33,55,46,34,100,100,93,,,,5,1,0,50,35,67,2.55,8,Fog-Rain,256
2010-10-2,35,30,24,34,17,-8,100,65,17,,,,0,0,0,54,36,50,0.05,0,Fog,295
2010-10-3,37,32,26,30,16,0,100,56,23,,,,0,0,0,21,14,,0.00,2,Fog,312
2010-10-4,44,38,32,45,20,3,100,52,26,,,,0,0,0,32,16,,0.00,6,Fog,111
2010-10-5,51,46,39,50,43,28,100,94,65,,,,0,0,0,30,12,,0.07,7,Fog,109
2010-10-6,39,34,29,39,30,18,100,87,45,,,,20,2,0,53,36,62,0.07,8,Fog-Rain,106
2010-10-7,37,32,26,37,31,27,100,100,100,,,,0,0,0,78,41,91,0.17,,Fog-Rain-Snow,281
2010-10-8,32,29,26,32,29,27,100,100,100,,,,0,0,0,69,56,81,0.00,,Fog-Rain-Snow,288
2010-10-9,30,24,17,30,21,18,100,100,100,,,,0,0,0,71,58,75,0.08,,Fog,299
2010-10-10,30,24,17,28,18,12,100,80,55,,,,0,0,0,64,57,70,0.00,4,Fog,291
2010-10-11,28,26,24,28,24,12,100,91,59,,,,0,0,0,55,48,61,0.00,4,Fog,292
2010-10-12,32,28,23,28,25,18,100,92,69,,,,0,0,0,41,27,39,0.00,3,Fog,285
2010-10-13,32,28,23,28,21,-4,100,81,23,,,,0,0,0,38,24,43,0.00,1,Fog,325
2010-10-14,32,29,26,30,22,-8,100,82,21,,,,0,0,0,32,15,36,0.00,3,Fog-Snow,193
2010-10-15,30,26,23,30,28,23,100,100,100,,,,0,0,0,72,44,81,0.07,,Fog-Rain-Snow,59
2010-10-16,24,22,21,25,23,21,100,100,100,,,,0,0,0,61,47,72,0.38,,Fog-Snow,328
2010-10-17,28,24,21,28,24,21,100,100,100,,,,0,0,0,71,55,82,0.25,,Fog-Snow,295
2010-10-18,21,18,15,21,17,14,100,97,86,,,,0,0,0,61,55,69,0.00,7,Fog-Snow,290
2010-10-19,23,18,14,23,17,12,100,93,74,,,,7,1,0,47,37,55,0.00,6,Fog,286
2010-10-20,28,26,23,28,24,21,100,94,80,,,,0,0,0,51,35,55,0.00,3,Fog,246
2010-10-21,28,20,12,28,22,12,100,95,74,,,,0,0,0,70,34,81,0.17,8,Fog-Snow,241
2010-10-22,14,11,8,14,11,9,100,100,100,,,,0,0,0,81,63,90,0.13,,Fog-Snow,290
2010-10-23,19,10,6,16,10,1,100,94,46,,,,0,0,0,77,61,86,0.00,2,Fog-Snow,300
2010-10-24,35,28,21,36,13,-4,100,61,29,,,,0,0,0,41,33,48,0.00,8,Fog-Rain-Snow,287
2010-10-25,44,38,33,41,36,30,100,87,61,,,,0,0,0,46,37,50,0.09,7,Fog-Rain,246
2010-10-26,50,46,41,45,42,39,100,95,66,,,,0,0,0,39,22,52,0.87,6,Fog-Rain,224
2010-10-27,50,44,37,50,44,30,100,95,75,,,,0,0,0,59,44,71,0.21,4,Fog-Rain,270
2010-10-28,39,32,24,32,29,25,100,80,60,,,,0,0,0,58,40,59,0.00,2,Fog,262
2010-10-29,26,20,14,27,23,14,100,100,100,,,,0,0,0,60,38,70,0.12,,Fog-Snow,291
2010-10-30,23,16,8,23,16,9,100,100,100,,,,0,0,0,63,53,70,0.19,,Fog-Snow,281
2010-10-31,23,16,8,23,15,9,100,100,100,,,,0,0,0,54,40,59,0.29,,Fog-Snow,292